createdAt,value
2018-11-22T00:12:25.858Z,305.7
2018-11-22T00:17:34.792Z,305.5
2018-11-22T00:22:43.543Z,305.7
2018-11-22T00:33:01.377Z,305.6
2018-11-22T00:43:19.038Z,305.6
2018-11-22T00:53:36.767Z,305.6
2018-11-22T01:03:54.470Z,305.6
2018-11-22T01:14:12.173Z,305.2
2018-11-22T01:19:20.956Z,305.3
2018-11-22T01:24:29.798Z,305.7
2018-11-22T01:45:05.326Z,305.5
2018-11-22T01:55:23.090Z,305.2
2018-11-22T02:15:58.700Z,304.9
2018-11-22T02:36:34.178Z,305
2018-11-22T02:57:09.919Z,305.1
2018-11-22T03:07:27.724Z,304.9
2018-11-22T03:38:21.055Z,304.5
2018-11-22T03:43:29.953Z,304.7
2018-11-22T03:48:38.719Z,304.4
2018-11-22T03:58:56.491Z,304.5
2018-11-22T04:09:14.197Z,304.9
2018-11-22T04:19:32.039Z,304.6
2018-11-22T04:40:07.408Z,304.6
2018-11-22T04:45:16.241Z,304.5
2018-11-22T04:50:25.088Z,304.6
2018-11-22T05:11:00.431Z,304.4
2018-11-22T05:21:18.121Z,304.6
2018-11-22T05:41:53.316Z,304.5
2018-11-22T05:52:10.914Z,304.2
2018-11-22T05:57:19.678Z,304.3
2018-11-22T06:02:28.508Z,304.3
2018-11-22T06:23:03.664Z,306
2018-11-22T06:33:21.123Z,304.4
2018-11-22T06:53:56.186Z,304.1
2018-11-22T07:04:13.696Z,304
2018-11-22T07:24:48.690Z,304
2018-11-22T07:35:06.175Z,304
2018-11-22T07:45:23.726Z,304.2
2018-11-22T08:05:58.475Z,303.9
2018-11-22T08:21:24.636Z,304
2018-11-22T08:47:07.987Z,303.8
2018-11-22T08:57:25.331Z,303.8
2018-11-22T09:07:42.700Z,304
2018-11-22T09:12:51.376Z,303.5
2018-11-22T09:28:17.290Z,303.4
2018-11-22T09:48:51.977Z,303
2018-11-22T10:24:52.297Z,302.7
2018-11-22T10:30:00.895Z,302.9
2018-11-22T10:40:18.171Z,302.5
2018-11-22T10:50:35.273Z,302.5
2018-11-22T11:11:09.637Z,302.8
2018-11-22T11:21:26.813Z,302.7
2018-11-22T11:26:35.385Z,302.3
2018-11-22T11:31:43.971Z,302.1
2018-11-22T11:42:00.996Z,302.1
2018-11-22T12:02:35.235Z,302.3
2018-11-22T12:12:52.350Z,302.2
2018-11-22T12:18:00.936Z,302.4
2018-11-22T12:23:09.590Z,302.1
2018-11-22T12:33:26.624Z,302.2
2018-11-22T12:54:00.772Z,302.3
2018-11-22T13:04:17.885Z,302.2
2018-11-22T13:14:35.067Z,302.1
2018-11-22T13:24:52.167Z,302.5
2018-11-22T13:55:43.467Z,302.5
2018-11-22T14:06:00.436Z,302.2
2018-11-22T14:16:17.658Z,302.3
2018-11-22T14:26:34.737Z,302.1
2018-11-22T14:36:51.754Z,302.1
2018-11-22T14:47:08.886Z,302.1
2018-11-22T14:57:25.955Z,302
2018-11-22T15:02:36.131Z,302
2018-11-22T15:28:17.391Z,302.1
2018-11-22T15:38:34.509Z,302.1
2018-11-22T15:48:51.531Z,302.2
2018-11-22T16:09:25.962Z,302.2
2018-11-22T16:19:43.126Z,302.2
2018-11-22T16:40:17.625Z,302.2
2018-11-22T17:21:26.495Z,302.1
2018-11-22T17:31:43.862Z,302.1
2018-11-22T17:42:01.141Z,302.2
2018-11-22T17:57:26.975Z,302.3
2018-11-22T18:02:35.693Z,302.3
2018-11-22T18:12:53.042Z,302.5
2018-11-22T18:23:10.378Z,302.5
2018-11-22T18:33:27.673Z,303.2
2018-11-22T18:38:36.364Z,303.6
2018-11-22T18:48:53.668Z,303.1
2018-11-22T18:54:02.458Z,302.9
2018-11-22T19:04:19.740Z,302.8
2018-11-22T19:09:28.451Z,303.1
2018-11-22T19:14:37.074Z,302.6
2018-11-22T19:19:45.836Z,302.4
2018-11-22T19:24:54.504Z,302.7
2018-11-22T19:35:11.891Z,302.8
2018-11-22T19:40:20.591Z,302.8
2018-11-22T19:45:29.228Z,302.6
2018-11-22T19:50:37.948Z,302.6
2018-11-22T19:55:46.675Z,302.6
2018-11-22T20:00:55.369Z,302.5
2018-11-22T20:06:04.071Z,302.2
2018-11-22T20:11:12.744Z,302.5
2018-11-22T20:16:21.367Z,302.4
2018-11-22T20:21:30.159Z,302.2
2018-11-22T20:31:47.617Z,302.2
2018-11-22T20:36:56.356Z,302.4
2018-11-22T20:42:05.063Z,302.2
2018-11-22T20:47:13.777Z,302.3
2018-11-22T20:57:31.249Z,302.3
2018-11-22T21:02:40.036Z,302.6
2018-11-22T21:07:48.772Z,302.5
2018-11-22T21:12:57.492Z,302.4
2018-11-22T21:18:06.262Z,303
2018-11-22T21:23:14.904Z,304.5
2018-11-22T21:28:23.724Z,303.1
2018-11-22T21:38:41.227Z,303.7
2018-11-22T21:43:49.994Z,302.6
2018-11-22T21:48:58.761Z,302.7
2018-11-22T21:54:07.544Z,302.2
2018-11-22T21:59:16.362Z,302.2
2018-11-22T22:04:25.026Z,302.2
2018-11-22T22:14:42.698Z,302.4
2018-11-22T22:19:51.424Z,302.2
2018-11-22T22:25:00.343Z,302.2
2018-11-22T22:30:09.037Z,302.6
2018-11-22T22:40:26.696Z,302.1
2018-11-22T22:45:35.505Z,302.6
2018-11-22T22:50:44.347Z,302.6
2018-11-22T22:55:53.197Z,302.2
2018-11-22T23:01:02.008Z,302.4
2018-11-22T23:06:10.839Z,301.8
2018-11-22T23:11:19.595Z,302.5
2018-11-22T23:16:28.521Z,301.6
2018-11-22T23:21:37.335Z,302.2
2018-11-22T23:26:46.203Z,302.2
2018-11-22T23:31:55.032Z,302.2
2018-11-22T23:42:12.731Z,302.4
2018-11-22T23:47:21.598Z,302.1
2018-11-22T23:57:39.376Z,302.4
